createdAt,value
2018-08-03T00:01:51.458Z,100879
2018-08-03T00:04:20.297Z,100881
2018-08-03T00:06:49.157Z,100876
2018-08-03T00:09:18.762Z,100883
2018-08-03T00:11:47.604Z,100882
2018-08-03T00:14:16.458Z,100882
2018-08-03T00:16:45.297Z,100885
2018-08-03T00:19:14.130Z,100884
2018-08-03T00:21:42.970Z,100880
2018-08-03T00:24:11.813Z,100881
2018-08-03T00:26:40.652Z,100880
2018-08-03T00:29:09.503Z,100877
2018-08-03T00:31:38.342Z,100872
2018-08-03T00:34:07.192Z,100877
2018-08-03T00:36:36.034Z,100869
2018-08-03T00:39:05.620Z,100867
2018-08-03T00:41:34.481Z,100861
2018-08-03T00:44:03.313Z,100860
2018-08-03T00:46:32.178Z,100866
2018-08-03T00:49:01.022Z,100871
2018-08-03T00:51:29.873Z,100860
2018-08-03T00:53:58.719Z,100862
2018-08-03T00:56:27.572Z,100868
2018-08-03T00:58:56.410Z,100865
2018-08-03T01:01:25.245Z,100868
2018-08-03T01:03:54.092Z,100869
2018-08-03T01:06:22.929Z,100859
2018-08-03T01:08:51.785Z,100861
2018-08-03T01:11:20.636Z,100860
2018-08-03T01:13:49.478Z,100867
2018-08-03T01:16:18.330Z,100867
2018-08-03T01:18:47.158Z,100864
2018-08-03T01:21:16.738Z,100869
2018-08-03T01:23:45.565Z,100874
2018-08-03T01:26:15.151Z,100868
2018-08-03T01:28:43.994Z,100872
2018-08-03T01:31:12.836Z,100872
2018-08-03T01:33:41.688Z,100876
2018-08-03T01:36:10.528Z,100871
2018-08-03T01:38:40.104Z,100870
2018-08-03T01:41:08.938Z,100867
2018-08-03T01:43:37.781Z,100870
2018-08-03T01:46:06.626Z,100874
2018-08-03T01:48:35.473Z,100871
2018-08-03T01:51:04.322Z,100870
2018-08-03T01:53:33.153Z,100870
2018-08-03T01:56:02.747Z,100871
2018-08-03T01:58:31.578Z,100868
2018-08-03T02:01:00.423Z,100863
2018-08-03T02:03:29.264Z,100879
2018-08-03T02:05:58.114Z,100880
2018-08-03T02:08:27.690Z,100879
2018-08-03T02:10:56.527Z,100877
2018-08-03T02:13:25.370Z,100882
2018-08-03T02:15:54.212Z,100883
2018-08-03T02:18:23.048Z,100883
2018-08-03T02:20:51.890Z,100890
2018-08-03T02:23:20.725Z,100883
2018-08-03T02:25:49.565Z,100886
2018-08-03T02:28:18.405Z,100877
2018-08-03T02:30:47.247Z,100881
2018-08-03T02:33:16.097Z,100871
2018-08-03T02:35:44.939Z,100891
2018-08-03T02:38:13.782Z,100884
2018-08-03T02:40:42.648Z,100890
2018-08-03T02:43:11.490Z,100890
2018-08-03T02:45:40.335Z,100877
2018-08-03T02:48:09.171Z,100889
2018-08-03T02:50:38.003Z,100889
2018-08-03T02:53:06.847Z,100889
2018-08-03T02:55:35.680Z,100882
2018-08-03T02:58:04.529Z,100887
2018-08-03T03:00:33.383Z,100891
2018-08-03T03:03:02.245Z,100891
2018-08-03T03:05:31.090Z,100881
2018-08-03T03:07:59.928Z,100882
2018-08-03T03:10:28.824Z,100888
2018-08-03T03:12:57.655Z,100892
2018-08-03T03:15:26.492Z,100890
2018-08-03T03:17:55.321Z,100887
2018-08-03T03:20:24.162Z,100889
2018-08-03T03:22:53.006Z,100891
2018-08-03T03:25:22.582Z,100890
2018-08-03T03:27:51.426Z,100897
2018-08-03T03:30:20.263Z,100890
2018-08-03T03:32:49.114Z,100900
2018-08-03T03:35:17.953Z,100897
2018-08-03T03:37:46.784Z,100903
2018-08-03T03:40:15.622Z,100898
2018-08-03T03:42:44.467Z,100905
2018-08-03T03:45:13.305Z,100910
2018-08-03T03:47:42.144Z,100912
2018-08-03T03:50:10.978Z,100903
2018-08-03T03:52:39.832Z,100897
2018-08-03T03:55:08.669Z,100905
2018-08-03T03:57:37.502Z,100907
2018-08-03T04:00:07.098Z,100902
2018-08-03T04:02:35.929Z,100896
2018-08-03T04:05:04.771Z,100900
2018-08-03T04:07:33.619Z,100895
2018-08-03T04:10:02.446Z,100903
2018-08-03T04:12:31.277Z,100905
2018-08-03T04:15:00.858Z,100904
2018-08-03T04:17:29.703Z,100903
2018-08-03T04:19:58.535Z,100907
2018-08-03T04:22:27.393Z,100910
2018-08-03T04:24:56.229Z,100901
2018-08-03T04:27:25.819Z,100905
2018-08-03T04:29:54.669Z,100910
2018-08-03T04:32:23.509Z,100908
2018-08-03T04:34:52.359Z,100901
2018-08-03T04:37:21.203Z,100917
2018-08-03T04:39:50.056Z,100916
2018-08-03T04:42:18.932Z,100910
2018-08-03T04:44:47.734Z,100915
2018-08-03T04:47:16.566Z,100918
2018-08-03T04:49:45.416Z,100912
2018-08-03T04:52:14.255Z,100917
2018-08-03T04:54:43.129Z,100918
2018-08-03T04:57:11.952Z,100914
2018-08-03T04:59:40.793Z,100920
2018-08-03T05:02:10.391Z,100919
2018-08-03T05:04:39.279Z,100919
2018-08-03T05:07:08.072Z,100910
2018-08-03T05:09:36.931Z,100912
2018-08-03T05:12:05.767Z,100913
2018-08-03T05:14:34.611Z,100914
2018-08-03T05:17:03.449Z,100919
2018-08-03T05:19:33.023Z,100919
2018-08-03T05:22:01.868Z,100929
2018-08-03T05:24:30.718Z,100925
2018-08-03T05:26:59.566Z,100936
2018-08-03T05:29:28.411Z,100938
2018-08-03T05:31:57.280Z,100945
2018-08-03T05:34:26.128Z,100947
2018-08-03T05:36:54.969Z,100945
2018-08-03T05:39:24.413Z,100941
2018-08-03T05:41:53.251Z,100939
2018-08-03T05:44:22.109Z,100940
2018-08-03T05:46:50.949Z,100940
2018-08-03T05:49:19.811Z,100936
2018-08-03T05:51:48.656Z,100941
2018-08-03T05:54:17.512Z,100940
2018-08-03T05:56:47.102Z,100941
2018-08-03T05:59:15.952Z,100938
2018-08-03T06:01:44.803Z,100945
2018-08-03T06:04:13.674Z,100940
2018-08-03T06:06:43.266Z,100944
2018-08-03T06:09:12.112Z,100940
2018-08-03T06:11:40.961Z,100953
2018-08-03T06:14:09.816Z,100950
2018-08-03T06:16:38.657Z,100952
2018-08-03T06:19:07.510Z,100953
2018-08-03T06:21:36.343Z,100947
2018-08-03T06:24:05.213Z,100947
2018-08-03T06:26:34.053Z,100948
2018-08-03T06:29:02.895Z,100949
2018-08-03T06:31:31.735Z,100951
2018-08-03T06:34:00.587Z,100950
2018-08-03T06:36:29.451Z,100948
2018-08-03T06:38:58.299Z,100952
2018-08-03T06:41:27.161Z,100954
2018-08-03T06:43:56.012Z,100944
2018-08-03T06:46:24.920Z,100944
2018-08-03T06:48:53.738Z,100944
2018-08-03T06:51:22.586Z,100951
2018-08-03T06:53:52.200Z,100948
2018-08-03T06:56:21.043Z,100943
2018-08-03T06:58:49.888Z,100941
2018-08-03T07:01:18.728Z,100939
2018-08-03T07:03:47.572Z,100943
2018-08-03T07:06:16.416Z,100944
2018-08-03T07:08:45.276Z,100941
2018-08-03T07:11:14.883Z,100938
2018-08-03T07:13:44.306Z,100934
2018-08-03T07:16:13.152Z,100935
2018-08-03T07:18:41.997Z,100932
2018-08-03T07:21:11.588Z,100930
2018-08-03T07:23:40.646Z,100936
2018-08-03T07:26:09.461Z,100932
2018-08-03T07:28:38.310Z,100933
2018-08-03T07:31:07.170Z,100926
2018-08-03T07:33:36.009Z,100930
2018-08-03T07:36:04.856Z,100936
2018-08-03T07:38:33.697Z,100929
2018-08-03T07:41:02.552Z,100936
2018-08-03T07:43:31.424Z,100933
2018-08-03T07:46:00.992Z,100933
2018-08-03T07:48:29.857Z,100925
2018-08-03T07:50:58.698Z,100928
2018-08-03T07:53:27.535Z,100922
2018-08-03T07:55:56.393Z,100927
2018-08-03T07:58:25.236Z,100931
2018-08-03T08:00:54.079Z,100925
2018-08-03T08:03:22.909Z,100931
2018-08-03T08:05:51.765Z,100929
2018-08-03T08:08:20.600Z,100929
2018-08-03T08:10:49.436Z,100916
2018-08-03T08:13:18.271Z,100922
2018-08-03T08:15:47.150Z,100918
2018-08-03T08:18:15.982Z,100915
2018-08-03T08:20:44.828Z,100912
2018-08-03T08:23:13.663Z,100915
2018-08-03T08:25:42.511Z,100913
2018-08-03T08:28:11.346Z,100908
2018-08-03T08:30:40.196Z,100912
2018-08-03T08:33:09.032Z,100911
2018-08-03T08:35:37.872Z,100909
2018-08-03T08:38:06.711Z,100906
2018-08-03T08:40:35.558Z,100911
2018-08-03T08:43:04.403Z,100909
2018-08-03T08:45:33.267Z,100917
2018-08-03T08:48:02.858Z,100909
2018-08-03T08:50:31.703Z,100910
2018-08-03T08:53:00.549Z,100915
2018-08-03T08:55:30.131Z,100909
2018-08-03T08:57:58.974Z,100915
2018-08-03T09:00:27.812Z,100907
2018-08-03T09:02:56.673Z,100906
2018-08-03T09:05:25.508Z,100907
2018-08-03T09:07:55.177Z,100908
2018-08-03T09:10:23.969Z,100894
2018-08-03T09:12:52.833Z,100897
2018-08-03T09:15:20.905Z,100900
2018-08-03T09:17:49.769Z,100900
2018-08-03T09:20:18.624Z,100897
2018-08-03T09:22:47.474Z,100897
2018-08-03T09:25:16.308Z,100895
2018-08-03T09:27:45.146Z,100896
2018-08-03T09:30:14.006Z,100902
2018-08-03T09:32:42.855Z,100888
2018-08-03T09:35:11.707Z,100886
2018-08-03T09:37:40.539Z,100883
2018-08-03T09:40:09.387Z,100875
2018-08-03T09:42:38.223Z,100863
2018-08-03T09:45:07.080Z,100874
2018-08-03T09:47:35.970Z,100868
2018-08-03T09:50:05.525Z,100868
2018-08-03T09:52:34.373Z,100861
2018-08-03T09:55:03.218Z,100865
2018-08-03T09:57:32.060Z,100861
2018-08-03T10:00:00.901Z,100858
2018-08-03T10:02:29.747Z,100848
2018-08-03T10:04:58.592Z,100852
2018-08-03T10:07:27.524Z,100852
2018-08-03T10:09:56.276Z,100850
2018-08-03T10:12:25.114Z,100853
2018-08-03T10:14:53.957Z,100843
2018-08-03T10:17:22.921Z,100844
2018-08-03T10:19:51.642Z,100845
2018-08-03T10:22:20.540Z,100837
2018-08-03T10:24:49.318Z,100835
2018-08-03T10:27:18.186Z,100830
2018-08-03T10:29:47.093Z,100826
2018-08-03T10:32:15.881Z,100827
2018-08-03T10:34:44.727Z,100822
2018-08-03T10:37:14.315Z,100819
2018-08-03T10:39:43.175Z,100821
2018-08-03T10:42:12.009Z,100824
2018-08-03T10:44:40.853Z,100814
2018-08-03T10:47:09.732Z,100810
2018-08-03T10:49:38.533Z,100811
2018-08-03T10:52:07.391Z,100807
2018-08-03T10:54:36.975Z,100802
2018-08-03T10:57:05.813Z,100804
2018-08-03T10:59:34.664Z,100808
2018-08-03T11:02:04.243Z,100809
2018-08-03T11:04:33.074Z,100808
2018-08-03T11:07:01.934Z,100804
2018-08-03T11:09:30.782Z,100795
2018-08-03T11:11:59.635Z,100797
2018-08-03T11:14:28.475Z,100797
2018-08-03T11:16:57.320Z,100794
2018-08-03T11:19:26.915Z,100794
2018-08-03T11:21:56.496Z,100786
2018-08-03T11:24:25.369Z,100790
2018-08-03T11:26:54.205Z,100788
2018-08-03T11:29:23.051Z,100783
2018-08-03T11:31:51.904Z,100775
2018-08-03T11:34:20.748Z,100777
2018-08-03T11:36:49.594Z,100768
2018-08-03T11:39:18.434Z,100764
2018-08-03T11:41:48.016Z,100768
2018-08-03T11:44:16.878Z,100758
2018-08-03T11:46:45.720Z,100760
2018-08-03T11:49:14.561Z,100755
2018-08-03T11:51:43.403Z,100758
2018-08-03T11:54:12.252Z,100751
2018-08-03T11:56:41.853Z,100757
2018-08-03T11:59:10.689Z,100753
2018-08-03T12:01:39.531Z,100748
2018-08-03T12:04:08.377Z,100748
2018-08-03T12:06:37.303Z,100741
2018-08-03T12:09:06.055Z,100745
2018-08-03T12:11:34.919Z,100740
2018-08-03T12:14:04.503Z,100736
2018-08-03T12:16:33.360Z,100735
2018-08-03T12:19:02.194Z,100728
2018-08-03T12:21:31.626Z,100726
2018-08-03T12:24:00.474Z,100719
2018-08-03T12:26:29.314Z,100719
2018-08-03T12:28:58.167Z,100709
2018-08-03T12:31:27.061Z,100708
2018-08-03T12:33:55.871Z,100719
2018-08-03T12:36:25.464Z,100714
2018-08-03T12:38:55.053Z,100701
2018-08-03T12:41:23.899Z,100707
2018-08-03T12:43:52.737Z,100711
2018-08-03T12:46:21.574Z,100709
2018-08-03T12:48:50.411Z,100709
2018-08-03T12:51:19.246Z,100704
2018-08-03T12:53:48.104Z,100701
2018-08-03T12:56:17.002Z,100708
2018-08-03T12:58:45.838Z,100700
2018-08-03T13:01:15.496Z,100705
2018-08-03T13:03:44.294Z,100694
2018-08-03T13:06:13.889Z,100692
2018-08-03T13:08:42.701Z,100696
2018-08-03T13:11:11.543Z,100690
2018-08-03T13:13:40.377Z,100682
2018-08-03T13:16:09.215Z,100678
2018-08-03T13:18:38.072Z,100687
2018-08-03T13:21:06.935Z,100683
2018-08-03T13:23:35.770Z,100675
2018-08-03T13:26:04.612Z,100675
2018-08-03T13:28:34.219Z,100677
2018-08-03T13:31:03.805Z,100672
2018-08-03T13:33:32.647Z,100675
2018-08-03T13:36:01.492Z,100670
2018-08-03T13:38:30.366Z,100661
2018-08-03T13:40:59.219Z,100668
2018-08-03T13:43:28.062Z,100662
2018-08-03T13:45:57.654Z,100662
2018-08-03T13:48:26.510Z,100656
2018-08-03T13:50:55.367Z,100654
2018-08-03T13:53:24.214Z,100646
2018-08-03T13:55:53.064Z,100644
2018-08-03T13:58:21.914Z,100649
2018-08-03T14:00:51.505Z,100639
2018-08-03T14:03:20.350Z,100633
2018-08-03T14:05:49.187Z,100630
2018-08-03T14:08:18.786Z,100632
2018-08-03T14:10:47.625Z,100632
2018-08-03T14:13:16.488Z,100623
2018-08-03T14:15:45.330Z,100622
2018-08-03T14:18:14.179Z,100621
2018-08-03T14:20:43.777Z,100617
2018-08-03T14:23:13.367Z,100624
2018-08-03T14:25:42.208Z,100621
2018-08-03T14:28:11.057Z,100616
2018-08-03T14:30:40.664Z,100621
2018-08-03T14:33:09.511Z,100609
2018-08-03T14:35:38.491Z,100617
2018-08-03T14:38:07.289Z,100610
2018-08-03T14:40:36.116Z,100615
2018-08-03T14:43:04.965Z,100614
2018-08-03T14:45:33.805Z,100603
2018-08-03T14:48:03.449Z,100603
2018-08-03T14:50:32.221Z,100604
2018-08-03T14:53:01.079Z,100602
2018-08-03T14:55:29.905Z,100602
2018-08-03T14:57:58.772Z,100595
2018-08-03T15:00:27.621Z,100600
2018-08-03T15:02:56.455Z,100592
2018-08-03T15:05:26.038Z,100599
2018-08-03T15:07:54.939Z,100590
2018-08-03T15:10:23.765Z,100592
2018-08-03T15:12:52.623Z,100592
2018-08-03T15:15:21.471Z,100591
2018-08-03T15:17:50.324Z,100586
2018-08-03T15:20:19.171Z,100583
2018-08-03T15:22:50.335Z,100582
2018-08-03T15:25:18.802Z,100582
2018-08-03T15:27:47.637Z,100573
2018-08-03T15:30:16.480Z,100568
2018-08-03T15:32:45.313Z,100568
2018-08-03T15:35:14.936Z,100565
2018-08-03T15:37:43.768Z,100572
2018-08-03T15:40:12.598Z,100557
2018-08-03T15:42:42.179Z,100553
2018-08-03T15:45:11.011Z,100556
2018-08-03T15:47:39.856Z,100560
2018-08-03T15:50:08.709Z,100561
2018-08-03T15:52:37.597Z,100552
2018-08-03T15:55:07.134Z,100554
2018-08-03T15:57:35.975Z,100553
2018-08-03T16:00:04.859Z,100548
2018-08-03T16:02:33.710Z,100548
2018-08-03T16:05:03.306Z,100540
2018-08-03T16:07:32.151Z,100532
2018-08-03T16:10:00.979Z,100541
2018-08-03T16:12:29.814Z,100555
2018-08-03T16:14:58.656Z,100539
2018-08-03T16:17:27.495Z,100538
2018-08-03T16:19:56.351Z,100532
2018-08-03T16:22:25.797Z,100531
2018-08-03T16:24:54.648Z,100527
2018-08-03T16:27:24.067Z,100530
2018-08-03T16:29:53.676Z,100526
2018-08-03T16:32:23.262Z,100521
2018-08-03T16:34:52.115Z,100519
2018-08-03T16:37:20.958Z,100521
2018-08-03T16:39:50.539Z,100523
2018-08-03T16:42:19.383Z,100521
2018-08-03T16:44:48.327Z,100521
2018-08-03T16:47:17.806Z,100518
2018-08-03T16:49:46.650Z,100513
2018-08-03T16:52:15.490Z,100515
2018-08-03T16:54:44.350Z,100514
2018-08-03T16:57:13.181Z,100517
2018-08-03T16:59:42.035Z,100510
2018-08-03T17:02:10.866Z,100510
2018-08-03T17:04:39.811Z,100508
2018-08-03T17:07:08.680Z,100510
2018-08-03T17:09:37.442Z,100507
2018-08-03T17:12:06.292Z,100507
2018-08-03T17:14:35.139Z,100508
2018-08-03T17:17:04.010Z,100505
2018-08-03T17:19:32.893Z,100501
2018-08-03T17:22:01.693Z,100500
2018-08-03T17:24:31.281Z,100502
2018-08-03T17:27:00.121Z,100505
2018-08-03T17:29:28.967Z,100500
2018-08-03T17:31:57.832Z,100501
2018-08-03T17:34:26.648Z,100509
2018-08-03T17:36:56.283Z,100510
2018-08-03T17:39:25.071Z,100507
2018-08-03T17:41:53.926Z,100507
2018-08-03T17:44:22.771Z,100504
2018-08-03T17:46:51.619Z,100497
2018-08-03T17:49:21.337Z,100500
2018-08-03T17:51:50.060Z,100503
2018-08-03T17:54:19.652Z,100499
2018-08-03T17:56:49.228Z,100498
2018-08-03T17:59:18.063Z,100503
2018-08-03T18:01:47.657Z,100495
2018-08-03T18:04:17.235Z,100493
2018-08-03T18:06:46.081Z,100492
2018-08-03T18:09:14.927Z,100495
2018-08-03T18:11:43.763Z,100494
2018-08-03T18:14:12.611Z,100500
2018-08-03T18:16:41.470Z,100500
2018-08-03T18:19:10.304Z,100504
2018-08-03T18:21:39.204Z,100503
2018-08-03T18:24:07.989Z,100502
2018-08-03T18:26:36.838Z,100504
2018-08-03T18:29:05.780Z,100508
2018-08-03T18:31:34.552Z,100506
2018-08-03T18:34:03.379Z,100506
2018-08-03T18:36:32.235Z,100512
2018-08-03T18:39:01.079Z,100509
2018-08-03T18:41:29.928Z,100516
2018-08-03T18:43:58.763Z,100513
2018-08-03T18:46:27.616Z,100511
2018-08-03T18:48:56.461Z,100510
2018-08-03T18:51:25.352Z,100506
2018-08-03T18:53:54.191Z,100508
2018-08-03T18:56:23.030Z,100511
2018-08-03T18:58:51.877Z,100515
2018-08-03T19:01:20.714Z,100512
2018-08-03T19:03:49.556Z,100522
2018-08-03T19:06:18.439Z,100518
2018-08-03T19:08:47.283Z,100523
2018-08-03T19:11:16.119Z,100522
2018-08-03T19:13:45.746Z,100531
2018-08-03T19:16:14.555Z,100529
2018-08-03T19:18:43.398Z,100533
2018-08-03T19:21:12.239Z,100525
2018-08-03T19:23:41.077Z,100535
2018-08-03T19:26:09.919Z,100537
2018-08-03T19:28:38.781Z,100539
2018-08-03T19:31:07.621Z,100544
2018-08-03T19:33:36.465Z,100545
2018-08-03T19:36:05.330Z,100546
2018-08-03T19:38:34.156Z,100550
2018-08-03T19:41:03.002Z,100554
2018-08-03T19:43:31.848Z,100554
2018-08-03T19:46:00.720Z,100563
2018-08-03T19:48:29.543Z,100560
2018-08-03T19:50:58.388Z,100559
2018-08-03T19:53:27.237Z,100566
2018-08-03T19:55:56.092Z,100563
2018-08-03T19:58:24.927Z,100567
2018-08-03T20:00:53.785Z,100563
2018-08-03T20:03:22.629Z,100570
2018-08-03T20:05:51.479Z,100572
2018-08-03T20:08:20.319Z,100568
2018-08-03T20:10:49.174Z,100563
2018-08-03T20:13:18.029Z,100562
2018-08-03T20:15:46.907Z,100570
2018-08-03T20:18:16.468Z,100571
2018-08-03T20:20:45.335Z,100572
2018-08-03T20:23:14.171Z,100567
2018-08-03T20:25:43.750Z,100568
2018-08-03T20:28:12.599Z,100569
2018-08-03T20:30:41.504Z,100577
2018-08-03T20:33:10.292Z,100567
2018-08-03T20:35:39.142Z,100573
2018-08-03T20:38:07.985Z,100589
2018-08-03T20:40:36.842Z,100578
2018-08-03T20:43:06.433Z,100579
2018-08-03T20:45:35.272Z,100578
2018-08-03T20:48:04.119Z,100578
2018-08-03T20:50:33.726Z,100580
2018-08-03T20:53:02.566Z,100578
2018-08-03T20:55:31.463Z,100577
2018-08-03T20:58:00.246Z,100578
2018-08-03T21:00:29.113Z,100575
2018-08-03T21:02:57.954Z,100579
2018-08-03T21:05:26.801Z,100573
2018-08-03T21:07:55.641Z,100575
2018-08-03T21:10:24.524Z,100568
2018-08-03T21:12:53.382Z,100570
2018-08-03T21:15:22.216Z,100578
2018-08-03T21:17:51.070Z,100571
2018-08-03T21:20:19.906Z,100574
2018-08-03T21:22:49.500Z,100571
2018-08-03T21:25:19.081Z,100575
2018-08-03T21:27:47.919Z,100570
2018-08-03T21:30:16.814Z,100578
2018-08-03T21:32:45.609Z,100572
2018-08-03T21:35:14.464Z,100568
2018-08-03T21:37:43.290Z,100568
2018-08-03T21:40:12.132Z,100567
2018-08-03T21:42:40.969Z,100570
2018-08-03T21:45:09.817Z,100561
2018-08-03T21:47:38.662Z,100573
2018-08-03T21:50:07.500Z,100566
2018-08-03T21:52:36.336Z,100575
2018-08-03T21:55:05.168Z,100563
2018-08-03T21:57:34.018Z,100571
2018-08-03T22:00:02.869Z,100566
2018-08-03T22:02:32.469Z,100567
2018-08-03T22:05:01.318Z,100566
2018-08-03T22:07:30.153Z,100565
2018-08-03T22:09:58.994Z,100559
2018-08-03T22:12:27.833Z,100558
2018-08-03T22:14:56.674Z,100561
2018-08-03T22:17:25.554Z,100563
2018-08-03T22:19:54.361Z,100559
2018-08-03T22:22:23.205Z,100564
2018-08-03T22:25:05.153Z,100562
2018-08-03T22:27:34.001Z,100547
2018-08-03T22:30:02.846Z,100562
2018-08-03T22:32:31.752Z,100558
2018-08-03T22:35:00.532Z,100562
2018-08-03T22:37:29.392Z,100555
2018-08-03T22:39:58.245Z,100554
2018-08-03T22:42:27.823Z,100560
2018-08-03T22:44:56.661Z,100556
2018-08-03T22:47:25.500Z,100556
2018-08-03T22:49:54.370Z,100557
2018-08-03T22:52:23.190Z,100558
2018-08-03T22:54:52.026Z,100561
2018-08-03T22:57:20.879Z,100559
2018-08-03T22:59:49.721Z,100549
2018-08-03T23:02:18.554Z,100555
2018-08-03T23:04:47.405Z,100556
2018-08-03T23:07:16.237Z,100553
2018-08-03T23:09:45.073Z,100551
2018-08-03T23:12:13.924Z,100564
2018-08-03T23:14:42.759Z,100561
2018-08-03T23:17:11.603Z,100560
2018-08-03T23:19:40.444Z,100561
2018-08-03T23:22:09.285Z,100561
2018-08-03T23:24:38.137Z,100562
2018-08-03T23:27:06.973Z,100558
2018-08-03T23:29:36.565Z,100563
2018-08-03T23:32:05.401Z,100558
2018-08-03T23:34:34.249Z,100554
2018-08-03T23:37:03.084Z,100555
2018-08-03T23:39:31.922Z,100547
2018-08-03T23:42:00.772Z,100555
2018-08-03T23:44:29.621Z,100555
2018-08-03T23:46:59.212Z,100547
2018-08-03T23:49:28.806Z,100547
2018-08-03T23:51:57.654Z,100544
2018-08-03T23:54:26.484Z,100547
2018-08-03T23:56:55.927Z,100546
2018-08-03T23:59:24.768Z,100544
